Time;durP1;ratioP1;P1;durP2;ratioP2;P2;SDS_P1;SDS_P2;PMS_P1;PMS_P2;Temp;Humidity;BMP_temperature;BMP_pressure;BME280_temperature;BME280_humidity;BME280_pressure;Samples;Min_cycle;Max_cycle;Signal;HPM_P1;HPM_P2
2021/08/19 08:52:12;;;;;;;5.75;1.70;;;;;;;;;;2081775;28;99892;-20
2021/08/19 08:53:15;;;;;;;2.42;1.25;;;;;;;;;;2072032;28;100623;-21
2021/08/19 08:54:16;;;;;;;3.80;1.40;;;;;;;;;;2072268;28;100035;-18
2021/08/19 08:55:16;;;;;;;;;;;;;;;;;;2081057;28;99893;-22
2021/08/19 08:56:17;;;;;;;5.72;1.60;;;;;;;;;;2080916;28;100509;-17
2021/08/19 08:57:18;;;;;;;5.25;1.40;;;;;;;;;;2080807;28;99894;-18
2021/08/19 08:58:21;;;;;;;7.50;1.50;;;;;;;;;;2081048;28;99939;-18
2021/08/19 08:59:22;;;;;;;5.60;1.30;;;;;;;;;;2080828;28;99997;-20
2021/08/19 09:00:23;;;;;;;5.13;1.63;;;;;;;;;;2081194;28;99941;-20
2021/08/19 09:01:24;;;;;;;;;;;;;;;;;;2081080;28;100033;-18
2021/08/19 09:02:25;;;;;;;2.50;1.30;;;;;;;;;;2080987;28;100006;-18
2021/08/19 09:03:26;;;;;;;5.30;1.95;;;;;;;;;;2080181;28;100161;-19
2021/08/19 09:04:27;;;;;;;;;;;;;;;;;;2080929;28;100017;-21
2021/08/19 09:05:31;;;;;;;5.07;1.60;;;;;;;;;;2080465;28;100540;-20
2021/08/19 09:06:39;;;;;;;5.00;1.52;;;;;;;;;;2071608;28;100480;-21
2021/08/19 09:07:40;;;;;;;6.40;1.40;;;;;;;;;;2064472;28;100033;-18
2021/08/19 09:08:51;;;;;;;2.08;1.30;;;;;;;;;;2063310;28;100052;-18
2021/08/19 09:09:54;;;;;;;5.15;1.50;;;;;;;;;;2073274;28;100406;-22
2021/08/19 09:10:57;;;;;;;2.85;1.08;;;;;;;;;;2080380;28;100214;-19
2021/08/19 09:12:04;;;;;;;3.63;1.33;;;;;;;;;;2080739;28;99926;-18
2021/08/19 09:13:14;;;;;;;5.53;1.50;;;;;;;;;;2080750;28;100490;-15
2021/08/19 09:14:20;;;;;;;4.63;1.17;;;;;;;;;;2080730;28;99897;-16
2021/08/19 09:15:24;;;;;;;3.60;1.38;;;;;;;;;;2080325;28;99924;-18
2021/08/19 09:16:25;;;;;;;4.53;1.50;;;;;;;;;;2080937;28;100034;-19
2021/08/19 09:17:49;;;;;;;;;;;;;;;;;;2072106;28;100013;-19
2021/08/19 09:18:50;;;;;;;3.05;1.40;;;;;;;;;;2074888;28;100410;-17
2021/08/19 09:20:04;;;;;;;2.72;1.10;;;;;;;;;;2068621;28;100349;-19
2021/08/19 09:21:20;;;;;;;2.85;1.42;;;;;;;;;;2054917;28;100206;-17
2021/08/19 09:22:22;;;;;;;5.43;1.48;;;;;;;;;;2060947;28;100010;-21
2021/08/19 09:23:22;;;;;;;;;;;;;;;;;;2071480;28;99940;-17
2021/08/19 09:24:29;;;;;;;5.38;1.63;;;;;;;;;;2071557;28;99952;-17
2021/08/19 09:25:41;;;;;;;5.15;1.20;;;;;;;;;;2072240;28;100602;-17
2021/08/19 09:26:43;;;;;;;2.78;1.30;;;;;;;;;;2080621;28;100118;-20
2021/08/19 09:28:08;;;;;;;4.25;1.45;;;;;;;;;;2080346;28;100451;-20
2021/08/19 09:29:24;;;;;;;4.57;1.20;;;;;;;;;;2080682;28;99945;-17
2021/08/19 09:30:28;;;;;;;2.90;1.10;;;;;;;;;;2080249;28;100060;-20
2021/08/19 09:31:36;;;;;;;2.83;1.40;;;;;;;;;;2079791;28;99942;-19
2021/08/19 09:32:37;;;;;;;2.03;1.20;;;;;;;;;;2079782;28;100130;-18
2021/08/19 09:33:41;;;;;;;;;;;;;;;;;;2081018;28;100004;-17
2021/08/19 09:34:47;;;;;;;2.72;1.23;;;;;;;;;;2070729;28;100127;-16
2021/08/19 09:35:50;;;;;;;3.92;1.15;;;;;;;;;;2063988;28;100170;-18
2021/08/19 09:36:59;;;;;;;2.92;1.20;;;;;;;;;;2071356;28;99982;-20
2021/08/19 09:38:12;;;;;;;3.35;1.25;;;;;;;;;;2077455;28;99912;-16
2021/08/19 09:39:13;;;;;;;4.82;1.48;;;;;;;;;;2080388;28;99924;-19
2021/08/19 09:40:15;;;;;;;;;;;;;;;;;;2071293;28;100246;-18
2021/08/19 09:41:18;;;;;;;5.70;1.20;;;;;;;;;;2071873;28;100295;-18
2021/08/19 09:42:18;;;;;;;2.63;0.90;;;;;;;;;;2080605;28;100011;-15
2021/08/19 09:43:34;;;;;;;;;;;;;;;;;;2081185;28;100066;-18
2021/08/19 09:44:38;;;;;;;3.08;1.35;;;;;;;;;;2070482;28;100252;-17
2021/08/19 09:45:44;;;;;;;5.00;1.50;;;;;;;;;;2071575;28;99956;-20
2021/08/19 09:46:45;;;;;;;2.72;0.90;;;;;;;;;;2080420;28;100032;-17
2021/08/19 09:47:47;;;;;;;2.83;1.15;;;;;;;;;;2071169;28;100119;-18
2021/08/19 09:48:48;;;;;;;4.47;1.35;;;;;;;;;;2054808;28;100648;-19
2021/08/19 09:49:49;;;;;;;3.33;0.88;;;;;;;;;;2062738;28;100094;-19
2021/08/19 09:50:52;;;;;;;;;;;;;;;;;;2079853;28;99952;-15
2021/08/19 09:52:08;;;;;;;3.50;1.15;;;;;;;;;;2077949;28;99973;-17
2021/08/19 09:53:23;;;;;;;5.50;1.13;;;;;;;;;;2074651;28;100024;-19
2021/08/19 09:54:31;;;;;;;4.50;1.38;;;;;;;;;;2075027;28;99820;-19
2021/08/19 09:55:32;;;;;;;2.35;1.10;;;;;;;;;;2065160;28;100030;-16
2021/08/19 09:56:38;;;;;;;4.22;1.20;;;;;;;;;;2056973;28;100032;-19
2021/08/19 09:57:39;;;;;;;3.33;1.20;;;;;;;;;;2065783;28;100062;-16
2021/08/19 09:58:41;;;;;;;;;;;;;;;;;;2075703;28;99841;-19
2021/08/19 09:59:43;;;;;;;2.55;1.10;;;;;;;;;;2074672;28;99953;-17
2021/08/19 10:00:44;;;;;;;4.40;1.23;;;;;;;;;;2075218;28;100284;-19
2021/08/19 10:01:48;;;;;;;3.80;1.15;;;;;;;;;;2065680;28;100210;-18
2021/08/19 10:02:49;;;;;;;3.83;1.25;;;;;;;;;;2066010;28;100398;-17
2021/08/19 10:03:50;;;;;;;4.60;1.20;;;;;;;;;;2074715;28;100117;-19
2021/08/19 10:04:54;;;;;;;3.63;1.10;;;;;;;;;;2075065;28;100166;-20
2021/08/19 10:05:55;;;;;;;3.70;1.17;;;;;;;;;;2074955;28;99979;-19
2021/08/19 10:06:57;;;;;;;3.80;1.40;;;;;;;;;;2075242;28;100014;-20
2021/08/19 10:08:01;;;;;;;1.50;0.88;;;;;;;;;;2074765;28;100093;-19
2021/08/19 10:09:02;;;;;;;4.05;1.00;;;;;;;;;;2065729;28;99867;-18
2021/08/19 10:10:03;;;;;;;;;;;;;;;;;;2066252;28;100133;-20
2021/08/19 10:11:06;;;;;;;2.67;1.08;;;;;;;;;;2074824;28;100082;-16
2021/08/19 10:12:09;;;;;;;4.57;1.13;;;;;;;;;;2074827;28;99994;-17
2021/08/19 10:13:13;;;;;;;3.25;1.15;;;;;;;;;;2074642;28;100242;-17
2021/08/19 10:14:17;;;;;;;3.33;1.20;;;;;;;;;;2074387;28;99964;-16
2021/08/19 10:15:19;;;;;;;4.07;1.10;;;;;;;;;;2065928;28;100297;-18
2021/08/19 10:16:21;;;;;;;3.55;1.23;;;;;;;;;;2066538;28;99943;-18
2021/08/19 10:17:22;;;;;;;2.17;0.90;;;;;;;;;;2074829;28;99895;-20
2021/08/19 10:18:28;;;;;;;3.00;1.10;;;;;;;;;;2074614;28;100041;-17
2021/08/19 10:19:33;;;;;;;4.50;1.00;;;;;;;;;;2074908;28;99903;-17
2021/08/19 10:20:40;;;;;;;2.78;1.00;;;;;;;;;;2065604;28;100199;-17
2021/08/19 10:21:45;;;;;;;2.38;1.08;;;;;;;;;;2066706;28;99974;-15
2021/08/19 10:22:48;;;;;;;5.35;1.33;;;;;;;;;;2074850;28;100383;-18
2021/08/19 10:23:49;;;;;;;1.77;0.90;;;;;;;;;;2074722;28;99889;-19
2021/08/19 10:24:56;;;;;;;2.17;1.10;;;;;;;;;;2074896;28;99919;-19
2021/08/19 10:26:06;;;;;;;1.48;1.05;;;;;;;;;;2075068;28;99902;-19
2021/08/19 10:27:12;;;;;;;2.70;1.20;;;;;;;;;;2075152;28;99978;-20
2021/08/19 10:28:18;;;;;;;3.25;1.20;;;;;;;;;;2074796;28;99827;-18
2021/08/19 10:29:46;;;;;;;2.55;1.20;;;;;;;;;;2074886;28;100014;-20
2021/08/19 10:30:47;;;;;;;3.03;1.23;;;;;;;;;;2074647;28;100183;-18
2021/08/19 10:31:48;;;;;;;;;;;;;;;;;;2075382;28;99978;-15
2021/08/19 10:32:55;;;;;;;2.00;0.85;;;;;;;;;;2074792;28;99980;-18
2021/08/19 10:33:56;;;;;;;3.33;1.10;;;;;;;;;;2074906;28;99988;-20
2021/08/19 10:34:57;;;;;;;;;;;;;;;;;;2065722;28;100106;-21
2021/08/19 10:35:58;;;;;;;3.60;1.10;;;;;;;;;;2065912;28;100023;-20
2021/08/19 10:36:59;;;;;;;3.58;1.02;;;;;;;;;;2074742;28;100056;-18
2021/08/19 10:38:01;;;;;;;;;;;;;;;;;;2075353;28;100173;-19
2021/08/19 10:39:20;;;;;;;3.33;1.10;;;;;;;;;;2074356;28;100192;-20
2021/08/19 10:40:21;;;;;;;3.83;1.10;;;;;;;;;;2065378;28;100241;-17
2021/08/19 10:41:31;;;;;;;3.25;1.35;;;;;;;;;;2065499;28;99871;-18
2021/08/19 10:42:33;;;;;;;3.35;1.10;;;;;;;;;;2074365;28;99951;-19
2021/08/19 10:43:37;;;;;;;3.80;0.95;;;;;;;;;;2074092;28;99899;-18
2021/08/19 10:44:49;;;;;;;1.50;1.13;;;;;;;;;;2074012;28;100422;-16
2021/08/19 10:46:07;;;;;;;3.47;1.25;;;;;;;;;;2074395;28;99970;-15
2021/08/19 10:47:08;;;;;;;2.45;0.95;;;;;;;;;;2074095;28;100015;-17
2021/08/19 10:48:09;;;;;;;;;;;;;;;;;;2074411;28;100029;-19
2021/08/19 10:49:46;;;;;;;4.28;0.90;;;;;;;;;;2074227;28;99845;-19
2021/08/19 10:50:47;;;;;;;1.80;1.05;;;;;;;;;;2073334;28;100610;-19
2021/08/19 10:51:48;;;;;;;0.98;0.80;;;;;;;;;;2064048;28;100789;-17
2021/08/19 10:52:49;;;;;;;;;;;;;;;;;;2056803;28;100298;-16
2021/08/19 10:53:50;;;;;;;4.47;1.05;;;;;;;;;;2064311;28;100142;-16
2021/08/19 10:55:08;;;;;;;;;;;;;;;;;;2065938;28;100004;-20
2021/08/19 10:56:09;;;;;;;1.92;0.75;;;;;;;;;;2065315;28;100009;-18
2021/08/19 10:57:30;;;;;;;2.10;0.90;;;;;;;;;;2064629;28;100074;-17
2021/08/19 10:58:33;;;;;;;1.55;0.93;;;;;;;;;;2064983;28;100113;-20
2021/08/19 10:59:34;;;;;;;1.10;0.80;;;;;;;;;;2065319;28;100183;-19
2021/08/19 11:00:36;;;;;;;;;;;;;;;;;;2065538;28;100066;-18
2021/08/19 11:01:50;;;;;;;4.35;0.90;;;;;;;;;;2065187;28;100603;-21
2021/08/19 11:02:57;;;;;;;2.92;0.80;;;;;;;;;;2065524;28;99884;-18
2021/08/19 11:03:59;;;;;;;2.08;1.00;;;;;;;;;;2065076;28;100433;-20
2021/08/19 11:05:00;;;;;;;2.55;1.00;;;;;;;;;;2064713;28;99877;-17
2021/08/19 11:06:01;;;;;;;;;;;;;;;;;;2065614;28;100630;-17
2021/08/19 11:07:05;;;;;;;3.00;0.93;;;;;;;;;;2065992;28;99950;-18
2021/08/19 11:08:06;;;;;;;3.67;1.00;;;;;;;;;;2065530;28;100199;-18
2021/08/19 11:09:12;;;;;;;;;;;;;;;;;;2066358;28;100110;-16
2021/08/19 11:10:22;;;;;;;3.00;1.10;;;;;;;;;;2065303;28;100290;-19
2021/08/19 11:11:27;;;;;;;5.03;1.20;;;;;;;;;;2065798;28;99976;-19
2021/08/19 11:12:28;;;;;;;3.15;0.90;;;;;;;;;;2064608;28;100125;-21
2021/08/19 11:13:31;;;;;;;3.25;1.10;;;;;;;;;;2065341;28;100090;-21
2021/08/19 11:14:33;;;;;;;3.50;1.00;;;;;;;;;;2065827;28;100260;-17
2021/08/19 11:15:46;;;;;;;4.03;1.10;;;;;;;;;;2065167;28;99888;-18
2021/08/19 11:16:55;;;;;;;2.58;1.10;;;;;;;;;;2065861;28;100242;-17
2021/08/19 11:17:58;;;;;;;2.75;1.00;;;;;;;;;;2065390;28;100097;-19
2021/08/19 11:19:15;;;;;;;4.10;1.10;;;;;;;;;;2065585;28;100155;-18
2021/08/19 11:20:25;;;;;;;3.28;1.10;;;;;;;;;;2065740;28;99981;-17
2021/08/19 11:21:26;;;;;;;1.27;0.82;;;;;;;;;;2065649;28;100039;-19
2021/08/19 11:22:28;;;;;;;;;;;;;;;;;;2065954;28;99900;-19
2021/08/19 11:23:40;;;;;;;1.15;0.80;;;;;;;;;;2065052;28;100119;-19
2021/08/19 11:24:43;;;;;;;1.30;0.90;;;;;;;;;;2065114;28;99969;-20
2021/08/19 11:25:46;;;;;;;2.75;0.85;;;;;;;;;;2065774;28;100019;-21
2021/08/19 11:27:07;;;;;;;1.98;0.80;;;;;;;;;;2064797;28;100001;-19
2021/08/19 11:28:09;;;;;;;1.35;0.88;;;;;;;;;;2059566;28;100363;-15
2021/08/19 11:29:09;;;;;;;4.57;1.17;;;;;;;;;;2064821;28;100133;-20
2021/08/19 11:30:11;;;;;;;1.95;0.90;;;;;;;;;;2065705;28;99912;-19
2021/08/19 11:31:20;;;;;;;3.03;0.90;;;;;;;;;;2065478;28;99972;-18
2021/08/19 11:32:23;;;;;;;4.10;1.35;;;;;;;;;;2064945;28;100067;-20
2021/08/19 11:33:26;;;;;;;7.53;2.78;;;;;;;;;;2064922;28;100648;-19
2021/08/19 11:34:27;;;;;;;21.77;5.28;;;;;;;;;;2065432;28;100213;-18
2021/08/19 11:35:31;;;;;;;45.72;18.98;;;;;;;;;;2065407;28;100161;-18
2021/08/19 11:36:34;;;;;;;142.52;61.88;;;;;;;;;;2064949;28;100563;-19
2021/08/19 11:37:36;;;;;;;49.75;21.42;;;;;;;;;;2063701;28;100449;-16
2021/08/19 11:38:38;;;;;;;76.30;34.95;;;;;;;;;;2065693;28;99980;-20
2021/08/19 11:39:39;;;;;;;73.70;30.45;;;;;;;;;;2057291;28;100285;-17
2021/08/19 11:40:41;;;;;;;;;;;;;;;;;;2057838;28;99926;-20
2021/08/19 11:41:54;;;;;;;62.97;26.80;;;;;;;;;;2057560;28;100151;-18
2021/08/19 11:42:55;;;;;;;30.55;12.60;;;;;;;;;;2059086;28;100130;-15
2021/08/19 11:44:03;;;;;;;;;;;;;;;;;;2066045;28;100178;-20
2021/08/19 11:45:36;;;;;;;23.23;8.10;;;;;;;;;;2065870;28;100211;-18
2021/08/19 11:46:37;;;;;;;105.85;45.72;;;;;;;;;;2040087;28;100072;-17
2021/08/19 11:47:38;;;;;;;;;;;;;;;;;;2055427;28;100112;-20
2021/08/19 11:48:48;;;;;;;57.30;22.88;;;;;;;;;;2065020;28;99935;-18
2021/08/19 11:49:53;;;;;;;138.13;65.10;;;;;;;;;;2065400;28;99944;-21
2021/08/19 11:50:56;;;;;;;38.25;16.73;;;;;;;;;;2065274;28;100055;-16
2021/08/19 11:52:12;;;;;;;28.27;13.20;;;;;;;;;;2064145;28;100320;-17
2021/08/19 11:53:16;;;;;;;49.67;20.00;;;;;;;;;;2050276;28;100072;-17
2021/08/19 11:54:17;;;;;;;45.10;20.00;;;;;;;;;;2056642;28;101475;-17
2021/08/19 11:55:31;;;;;;;;;;;;;;;;;;2066051;28;100147;-16
2021/08/19 11:56:37;;;;;;;42.40;17.42;;;;;;;;;;2065426;28;99922;-20
2021/08/19 11:57:38;;;;;;;39.45;17.55;;;;;;;;;;2065409;28;100033;-18
2021/08/19 11:58:38;;;;;;;;;;;;;;;;;;2065082;28;100193;-18
2021/08/19 11:59:39;;;;;;;39.80;18.85;;;;;;;;;;2064595;28;100102;-18
2021/08/19 12:00:56;;;;;;;;;;;;;;;;;;2048935;28;99935;-18
2021/08/19 12:01:57;;;;;;;39.38;17.45;;;;;;;;;;2058697;28;100212;-20
2021/08/19 12:02:59;;;;;;;;;;;;;;;;;;2065818;28;99995;-21
2021/08/19 12:04:00;;;;;;;33.28;16.15;;;;;;;;;;2065801;28;99880;-16
2021/08/19 12:05:08;;;;;;;37.50;16.65;;;;;;;;;;2064553;28;100269;-17
2021/08/19 12:06:14;;;;;;;40.13;17.15;;;;;;;;;;2064372;28;100189;-21
2021/08/19 12:07:15;;;;;;;44.58;17.33;;;;;;;;;;2065632;28;100027;-17
2021/08/19 12:08:26;;;;;;;41.38;17.65;;;;;;;;;;2065292;28;99997;-19
2021/08/19 12:09:28;;;;;;;45.50;18.15;;;;;;;;;;2065675;28;100174;-20
2021/08/19 12:10:29;;;;;;;43.33;18.05;;;;;;;;;;2065391;28;100019;-18
2021/08/19 12:11:31;;;;;;;;;;;;;;;;;;2065229;28;100033;-18
2021/08/19 12:12:36;;;;;;;37.22;16.30;;;;;;;;;;2064470;28;100088;-20
2021/08/19 12:13:39;;;;;;;39.40;15.50;;;;;;;;;;2064797;28;100170;-16
2021/08/19 12:14:40;;;;;;;43.88;16.95;;;;;;;;;;2064583;28;100003;-20
2021/08/19 12:15:41;;;;;;;;;;;;;;;;;;2064638;28;100055;-19
2021/08/19 12:16:50;;;;;;;34.95;15.70;;;;;;;;;;2064443;28;99955;-19
2021/08/19 12:18:05;;;;;;;37.15;15.80;;;;;;;;;;2064704;28;100013;-17
2021/08/19 12:19:15;;;;;;;41.00;15.45;;;;;;;;;;2064427;28;100040;-18
2021/08/19 12:20:19;;;;;;;38.03;16.42;;;;;;;;;;2065310;28;100035;-17
2021/08/19 12:21:21;;;;;;;36.53;16.75;;;;;;;;;;2065211;28;99963;-17
2021/08/19 12:22:23;;;;;;;38.53;16.50;;;;;;;;;;2065472;28;99919;-18
2021/08/19 12:23:27;;;;;;;34.13;14.77;;;;;;;;;;2064927;28;100061;-20
2021/08/19 12:24:40;;;;;;;33.67;15.50;;;;;;;;;;2065010;28;100411;-20
2021/08/19 12:25:41;;;;;;;30.73;14.63;;;;;;;;;;2064990;28;99955;-19
2021/08/19 12:26:42;;;;;;;;;;;;;;;;;;2065813;28;99991;-20
2021/08/19 12:27:43;;;;;;;33.97;15.00;;;;;;;;;;2065318;28;99911;-19
2021/08/19 12:28:54;;;;;;;;;;;;;;;;;;2065196;28;99853;-18
2021/08/19 12:29:57;;;;;;;37.15;14.32;;;;;;;;;;2064583;28;100012;-17
2021/08/19 12:31:00;;;;;;;37.78;15.45;;;;;;;;;;2064812;28;100194;-21
2021/08/19 12:32:02;;;;;;;31.75;14.43;;;;;;;;;;2064786;28;100007;-19
2021/08/19 12:33:04;;;;;;;34.40;14.68;;;;;;;;;;2062247;28;99918;-17
2021/08/19 12:34:05;;;;;;;34.42;14.57;;;;;;;;;;2064558;28;99911;-18
2021/08/19 12:35:10;;;;;;;;;;;;;;;;;;2065324;28;100079;-19
2021/08/19 12:36:19;;;;;;;37.80;15.23;;;;;;;;;;2065000;28;100014;-20
2021/08/19 12:37:20;;;;;;;32.60;14.50;;;;;;;;;;2064285;28;100031;-21
2021/08/19 12:38:25;;;;;;;34.80;14.30;;;;;;;;;;2065044;28;99887;-22
2021/08/19 12:39:28;;;;;;;38.15;15.40;;;;;;;;;;2064211;28;100652;-22
2021/08/19 12:40:32;;;;;;;31.92;13.52;;;;;;;;;;2056543;28;100027;-19
2021/08/19 12:41:33;;;;;;;32.78;13.68;;;;;;;;;;2063971;28;100851;-17
2021/08/19 12:42:35;;;;;;;;;;;;;;;;;;2064357;28;100031;-19
2021/08/19 12:43:36;;;;;;;;;;;;;;;;;;2048198;28;99903;-19
2021/08/19 12:44:38;;;;;;;32.33;12.40;;;;;;;;;;2061439;28;100362;-21
2021/08/19 12:45:39;;;;;;;31.60;13.43;;;;;;;;;;2064816;28;100134;-19
2021/08/19 12:46:43;;;;;;;35.58;14.15;;;;;;;;;;2047658;28;100047;-18
2021/08/19 12:47:47;;;;;;;28.25;12.85;;;;;;;;;;2049081;28;100123;-20
2021/08/19 12:48:47;;;;;;;28.67;12.82;;;;;;;;;;2064929;28;99999;-20
2021/08/19 12:49:57;;;;;;;25.08;12.32;;;;;;;;;;2064639;28;100058;-18
2021/08/19 12:51:16;;;;;;;26.92;12.73;;;;;;;;;;2064996;28;100103;-20
2021/08/19 12:52:22;;;;;;;27.33;11.93;;;;;;;;;;2064654;28;99949;-18
2021/08/19 12:53:23;;;;;;;27.52;12.27;;;;;;;;;;2064966;28;100034;-19
2021/08/19 12:54:23;;;;;;;;;;;;;;;;;;2065177;28;100692;-19
2021/08/19 12:55:26;;;;;;;30.52;12.75;;;;;;;;;;2065236;28;100163;-20
2021/08/19 12:56:27;;;;;;;27.63;12.25;;;;;;;;;;2064843;28;100095;-19
2021/08/19 12:57:29;;;;;;;;;;;;;;;;;;2065473;28;100159;-19
2021/08/19 12:58:30;;;;;;;29.55;11.60;;;;;;;;;;2065081;28;100047;-18
2021/08/19 12:59:34;;;;;;;27.83;12.07;;;;;;;;;;2064704;28;99939;-21
2021/08/19 13:00:37;;;;;;;29.45;12.82;;;;;;;;;;2064476;28;100058;-19
2021/08/19 13:01:38;;;;;;;28.25;12.10;;;;;;;;;;2064929;28;100103;-20
2021/08/19 13:02:39;;;;;;;;;;;;;;;;;;2064236;28;100484;-20
2021/08/19 13:03:40;;;;;;;27.08;11.63;;;;;;;;;;2064466;28;100201;-18
2021/08/19 13:04:41;;;;;;;;;;;;;;;;;;2065170;28;99818;-16
2021/08/19 13:05:42;;;;;;;23.50;10.75;;;;;;;;;;2064743;28;100037;-21
2021/08/19 13:06:43;;;;;;;27.38;11.88;;;;;;;;;;2064150;28;100208;-18
2021/08/19 13:07:45;;;;;;;23.08;10.93;;;;;;;;;;2064103;28;99992;-18
2021/08/19 13:08:49;;;;;;;26.60;11.20;;;;;;;;;;2064064;28;100131;-20
2021/08/19 13:09:50;;;;;;;26.48;11.25;;;;;;;;;;2065042;28;99895;-19
2021/08/19 13:10:51;;;;;;;23.45;11.27;;;;;;;;;;2064383;28;100081;-21
2021/08/19 13:11:52;;;;;;;27.65;11.63;;;;;;;;;;2064838;28;100491;-19
2021/08/19 13:12:54;;;;;;;21.75;10.75;;;;;;;;;;2063679;28;99975;-20
2021/08/19 13:13:55;;;;;;;26.65;10.75;;;;;;;;;;2055833;28;100080;-19
2021/08/19 13:14:56;;;;;;;;;;;;;;;;;;2064102;28;100588;-16
2021/08/19 13:15:57;;;;;;;20.83;10.90;;;;;;;;;;2064037;28;100151;-17
2021/08/19 13:16:58;;;;;;;23.88;9.88;;;;;;;;;;2052747;28;100668;-18
2021/08/19 13:17:59;;;;;;;18.27;9.80;;;;;;;;;;2061796;28;100055;-18
2021/08/19 13:19:00;;;;;;;32.10;10.73;;;;;;;;;;2056030;28;100059;-21
2021/08/19 13:20:03;;;;;;;22.48;9.63;;;;;;;;;;2056003;28;99941;-30
2021/08/19 13:21:04;;;;;;;23.65;10.25;;;;;;;;;;2064837;28;100041;-21
2021/08/19 13:22:05;;;;;;;23.10;10.05;;;;;;;;;;2064787;28;100133;-21
2021/08/19 13:23:06;;;;;;;21.73;9.95;;;;;;;;;;2063816;28;100097;-19
2021/08/19 13:24:07;;;;;;;;;;;;;;;;;;2064622;28;100107;-18
2021/08/19 13:25:10;;;;;;;22.48;10.20;;;;;;;;;;2064245;28;99989;-19
2021/08/19 13:26:12;;;;;;;24.27;9.95;;;;;;;;;;2063887;28;100345;-18
2021/08/19 13:27:13;;;;;;;;;;;;;;;;;;2064871;28;100031;-19
2021/08/19 13:28:14;;;;;;;21.90;9.60;;;;;;;;;;2065357;28;99972;-17
2021/08/19 13:29:15;;;;;;;22.75;10.20;;;;;;;;;;2066023;28;100081;-18
2021/08/19 13:30:17;;;;;;;;;;;;;;;;;;2066359;28;100085;-18
2021/08/19 13:31:18;;;;;;;23.45;10.18;;;;;;;;;;2065864;28;100197;-17
2021/08/19 13:32:18;;;;;;;;;;;;;;;;;;2057504;28;100175;-18
2021/08/19 13:33:20;;;;;;;21.85;9.93;;;;;;;;;;2041448;28;99958;-20
2021/08/19 13:34:21;;;;;;;22.52;9.13;;;;;;;;;;2040522;28;100016;-17
2021/08/19 13:35:21;;;;;;;;;;;;;;;;;;2049791;28;100574;-18
2021/08/19 13:36:22;;;;;;;19.80;9.70;;;;;;;;;;2065881;28;100366;-17
2021/08/19 13:37:23;;;;;;;23.15;9.20;;;;;;;;;;2065868;28;99852;-18
2021/08/19 13:38:24;;;;;;;;;;;;;;;;;;2066351;28;99899;-19
2021/08/19 13:39:26;;;;;;;24.93;8.27;;;;;;;;;;2066337;28;100275;-18
2021/08/19 13:40:27;;;;;;;23.77;8.95;;;;;;;;;;2066290;28;100337;-20
2021/08/19 13:41:28;;;;;;;;;;;;;;;;;;2065796;28;100172;-21
2021/08/19 13:42:28;;;;;;;16.90;8.35;;;;;;;;;;2065713;28;100268;-17
2021/08/19 13:43:29;;;;;;;20.15;9.07;;;;;;;;;;2066385;28;100275;-20
2021/08/19 13:44:30;;;;;;;;;;;;;;;;;;2066286;28;99904;-20
2021/08/19 13:45:32;;;;;;;20.63;9.15;;;;;;;;;;2066387;28;100112;-16
2021/08/19 13:46:33;;;;;;;20.77;10.07;;;;;;;;;;2065846;28;99895;-20
2021/08/19 13:47:34;;;;;;;;;;;;;;;;;;2066538;28;102450;-21
2021/08/19 13:48:35;;;;;;;19.35;8.95;;;;;;;;;;2066030;28;99999;-20
2021/08/19 13:49:38;;;;;;;18.75;8.77;;;;;;;;;;2066070;28;100655;-19
2021/08/19 13:50:39;;;;;;;21.23;8.75;;;;;;;;;;2065744;28;100126;-17
2021/08/19 13:51:40;;;;;;;;;;;;;;;;;;2070475;28;99919;-17
2021/08/19 13:52:41;;;;;;;16.77;8.82;;;;;;;;;;2065340;28;100255;-22
2021/08/19 13:53:42;;;;;;;23.30;8.88;;;;;;;;;;2041265;28;99961;-18
2021/08/19 13:54:43;;;;;;;;;;;;;;;;;;2042124;28;100311;-19
2021/08/19 13:55:44;;;;;;;18.65;8.35;;;;;;;;;;2073383;28;100192;-19
2021/08/19 13:56:45;;;;;;;22.85;8.77;;;;;;;;;;2064599;28;100067;-20
2021/08/19 13:57:46;;;;;;;19.38;8.35;;;;;;;;;;2065287;28;100526;-21
2021/08/19 13:58:48;;;;;;;;;;;;;;;;;;2074679;28;99973;-24
2021/08/19 13:59:49;;;;;;;19.85;7.80;;;;;;;;;;2040915;28;99995;-20
2021/08/19 14:00:51;;;;;;;;;;;;;;;;;;2044029;28;100072;-21
2021/08/19 14:01:53;;;;;;;19.15;8.23;;;;;;;;;;2054682;28;100007;-18
2021/08/19 14:02:54;;;;;;;;;;;;;;;;;;2057962;28;99901;-21
2021/08/19 14:03:55;;;;;;;17.08;8.35;;;;;;;;;;2072605;28;100137;-20
2021/08/19 14:04:56;;;;;;;19.85;7.72;;;;;;;;;;2056546;28;100590;-20
2021/08/19 14:05:57;;;;;;;;;;;;;;;;;;2057811;28;100194;-18
2021/08/19 14:07:00;;;;;;;20.25;8.20;;;;;;;;;;2072544;28;100500;-17
2021/08/19 14:08:01;;;;;;;14.50;7.00;;;;;;;;;;2074208;28;100018;-19
2021/08/19 14:09:02;;;;;;;;;;;;;;;;;;2065509;28;99900;-21
2021/08/19 14:10:03;;;;;;;16.67;7.50;;;;;;;;;;2065641;28;99993;-17
2021/08/19 14:11:05;;;;;;;17.42;7.97;;;;;;;;;;2073995;28;99953;-21
2021/08/19 14:12:07;;;;;;;17.00;7.35;;;;;;;;;;2074381;28;99993;-20
2021/08/19 14:13:09;;;;;;;20.92;8.30;;;;;;;;;;2074376;28;100049;-21
2021/08/19 14:14:10;;;;;;;15.23;7.80;;;;;;;;;;2054483;28;100083;-20
2021/08/19 14:15:11;;;;;;;20.63;8.00;;;;;;;;;;2057149;28;99953;-19
2021/08/19 14:16:13;;;;;;;19.17;8.25;;;;;;;;;;2074069;28;99899;-19
2021/08/19 14:17:14;;;;;;;17.98;7.95;;;;;;;;;;2064974;28;100069;-21
2021/08/19 14:18:15;;;;;;;;;;;;;;;;;;2065445;28;100111;-18
2021/08/19 14:19:16;;;;;;;16.17;7.57;;;;;;;;;;2074420;28;100057;-17
2021/08/19 14:20:17;;;;;;;16.73;7.50;;;;;;;;;;2074291;28;100293;-19
2021/08/19 14:21:18;;;;;;;14.68;6.90;;;;;;;;;;2074441;28;100025;-22
2021/08/19 14:22:19;;;;;;;16.40;7.68;;;;;;;;;;2074079;28;100104;-19
2021/08/19 14:23:20;;;;;;;14.77;7.65;;;;;;;;;;2065537;28;99917;-18
2021/08/19 14:24:26;;;;;;;18.77;7.50;;;;;;;;;;2065135;28;100037;-21
2021/08/19 14:25:27;;;;;;;14.57;6.88;;;;;;;;;;2057006;28;100099;-21
2021/08/19 14:26:28;;;;;;;;;;;;;;;;;;2058640;28;100306;-20
2021/08/19 14:27:29;;;;;;;19.63;6.95;;;;;;;;;;2074078;28;99964;-18
2021/08/19 14:28:32;;;;;;;16.98;7.47;;;;;;;;;;2074395;28;99856;-20
2021/08/19 14:29:34;;;;;;;19.27;7.63;;;;;;;;;;2073686;28;100065;-18
2021/08/19 14:30:34;;;;;;;19.08;7.75;;;;;;;;;;2074157;28;100284;-19
2021/08/19 14:31:35;;;;;;;;;;;;;;;;;;2074795;28;100448;-20
2021/08/19 14:32:37;;;;;;;21.63;7.80;;;;;;;;;;2064750;28;100822;-20
2021/08/19 14:33:38;;;;;;;;;;;;;;;;;;2065889;28;100330;-17
2021/08/19 14:34:38;;;;;;;16.58;6.80;;;;;;;;;;2065110;28;100340;-18
2021/08/19 14:35:40;;;;;;;;;;;;;;;;;;2055920;28;101427;-18
2021/08/19 14:36:41;;;;;;;18.33;7.35;;;;;;;;;;2055664;28;100001;-19
2021/08/19 14:37:43;;;;;;;;;;;;;;;;;;2065440;28;99871;-21
2021/08/19 14:38:44;;;;;;;19.17;7.05;;;;;;;;;;2050486;28;100181;-21
2021/08/19 14:39:45;;;;;;;;;;;;;;;;;;2057259;28;101437;-17
2021/08/19 14:40:46;;;;;;;17.33;6.72;;;;;;;;;;2064785;28;100572;-21
2021/08/19 14:41:47;;;;;;;16.58;7.05;;;;;;;;;;2064921;28;100140;-19
2021/08/19 14:42:48;;;;;;;15.50;7.55;;;;;;;;;;2073930;28;100025;-17
2021/08/19 14:43:48;;;;;;;;;;;;;;;;;;2074213;28;99998;-18
2021/08/19 14:44:49;;;;;;;16.77;6.45;;;;;;;;;;2073844;28;99906;-21
2021/08/19 14:45:51;;;;;;;;;;;;;;;;;;2074279;28;99994;-17
2021/08/19 14:46:52;;;;;;;19.38;6.85;;;;;;;;;;2074292;28;100018;-19
2021/08/19 14:47:53;;;;;;;19.33;7.25;;;;;;;;;;2065363;28;100007;-20
2021/08/19 14:48:54;;;;;;;;;;;;;;;;;;2056900;28;100016;-21
2021/08/19 14:49:54;;;;;;;16.17;6.40;;;;;;;;;;2065784;28;100014;-21
2021/08/19 14:50:55;;;;;;;17.95;6.78;;;;;;;;;;2073738;28;100027;-21
2021/08/19 14:51:56;;;;;;;13.90;6.47;;;;;;;;;;2074026;28;100084;-18
2021/08/19 14:52:57;;;;;;;;;;;;;;;;;;2074506;28;100087;-21
2021/08/19 14:53:58;;;;;;;15.57;6.50;;;;;;;;;;2073958;28;100095;-17
2021/08/19 14:54:59;;;;;;;18.55;7.00;;;;;;;;;;2073278;28;100417;-19
2021/08/19 14:56:00;;;;;;;16.52;7.20;;;;;;;;;;2074573;28;99850;-21
2021/08/19 14:57:01;;;;;;;16.35;6.55;;;;;;;;;;2074201;28;100349;-19
2021/08/19 14:58:03;;;;;;;17.05;7.25;;;;;;;;;;2074146;28;99864;-20
2021/08/19 14:59:04;;;;;;;20.85;6.75;;;;;;;;;;2064986;28;100992;-20
2021/08/19 15:00:05;;;;;;;;;;;;;;;;;;2065879;28;100028;-19
2021/08/19 15:01:06;;;;;;;17.90;6.68;;;;;;;;;;2074254;28;100036;-17
2021/08/19 15:02:07;;;;;;;15.07;6.53;;;;;;;;;;2064936;28;100265;-19
2021/08/19 15:03:08;;;;;;;;;;;;;;;;;;2066000;28;100085;-18
2021/08/19 15:04:10;;;;;;;10.93;3.65;;;;;;;;;;2074154;28;100064;-20
2021/08/19 15:05:11;;;;;;;14.70;6.07;;;;;;;;;;2074406;28;100525;-19
2021/08/19 15:06:13;;;;;;;12.38;5.70;;;;;;;;;;2074252;28;99894;-19
2021/08/19 15:07:16;;;;;;;15.40;5.90;;;;;;;;;;2048580;28;100175;-19
2021/08/19 15:08:17;;;;;;;;;;;;;;;;;;2049720;28;100130;-21
2021/08/19 15:09:18;;;;;;;17.90;5.80;;;;;;;;;;2074249;28;99975;-16
2021/08/19 15:10:19;;;;;;;14.25;5.25;;;;;;;;;;2074349;28;99927;-18
2021/08/19 15:11:20;;;;;;;11.63;5.20;;;;;;;;;;2074270;28;100085;-18
2021/08/19 15:12:21;;;;;;;;;;;;;;;;;;2074748;28;100002;-21
2021/08/19 15:13:22;;;;;;;17.33;5.70;;;;;;;;;;2074273;28;100238;-18
2021/08/19 15:14:23;;;;;;;13.45;5.47;;;;;;;;;;2074010;28;100560;-20